HDGA4: War Eagle Creek At Hindsville, AR

                                SHEF ID:       HDGA4     War Eagle Crk nr Hindsville,AR
STATION TYPE:

STAGE RIV-FLOW WTR-TEMP CONDUCT BAT-LOAD
ft cfs F umho/cm volt
Ccp-Rev Ccp-Rev Ccp-Rev Ccp-Rev Ccp-Rev
(America/Chicago)
05/05 00:00 1.70 212 67.75 ---- 12.77
05/05 01:00 1.69 210 67.53 ---- 12.74
05/05 02:00 1.69 210 67.30 ---- 12.71
05/05 03:00 1.70 212 66.94 ---- 12.68
05/05 04:00 1.81 236 66.02 ---- 12.66
05/05 05:00 1.81 236 66.11 ---- 12.64
05/05 06:00 1.81 236 66.15 ---- 12.63
05/05 07:00 1.83 241 66.04 ---- 12.62
05/05 08:00 1.83 241 65.95 ---- 12.61
05/05 09:00 1.84 243 65.89 ---- 12.62
05/05 10:00 1.84 243 65.95 ---- 12.63
05/05 11:00 1.93 264 66.18 ---- 12.91
05/05 12:00 2.46 405 66.38 ---- 13.03
05/05 13:00 2.82 517 66.29 ---- 12.73
05/05 14:00 2.91 547 66.06 ---- 12.64
05/05 15:00 2.98 571 65.93 ---- 12.61
05/05 16:00 3.03 589 65.80 ---- 12.62
05/05 17:00 3.02 585 65.57 ---- 12.63
05/05 18:00 2.98 571 65.39 ---- 12.61
05/05 19:00 2.98 571 65.03 ---- 12.60
05/05 20:00 3.02 585 64.49 ---- 12.59
05/05 21:00 3.13 624 64.09 ---- 12.59
05/05 22:00 3.17 639 63.81 ---- 12.59
05/05 23:00 3.15 631 63.59 ---- 12.57
Data processed at Wed 06May2026 04:13 GMT

NOTICE: If you are parsing this page

Please convert to using our Data API. Starting early 2026 we will be migrating to: https://water.usace.army.mil with modern pages rendered in JavaScript. When this migration completes you will no longer be able to scrape this page! CWMSDataAPI (CDA)

Timeseries IDs (TSIDs)

TSIDs used from left to right in the data table
HIND.Stage.Inst.1Hour.0.Ccp-Rev
HIND.Flow.Inst.1Hour.0.Ccp-Rev
HIND.Temp-Water.Inst.1Hour.0.Ccp-Rev
HIND.Cond.Inst.1Hour.0.Ccp-Rev
HIND.Volt-Battery Load.Inst.1Hour.0.Ccp-Rev

                            

All information presented herein is the property of the government of the United States of America and may be revised or deleted at any time without prior notice. Dissemination of this information without the expressed written consent of the Public Affairs Office, Tulsa District U.S. Army Corps of Engineers is strictly prohibited. These data are gathered electronically and, as presented, have NOT undergone any form of quality control. These data are NOT guaranteed to be valid or correct.